createdAt,value
2018-04-12T00:00:30.253Z,98923.30
2018-04-12T00:02:57.766Z,98922.11
2018-04-12T00:05:25.231Z,98919.05
2018-04-12T00:07:52.743Z,98924.59
2018-04-12T00:10:20.200Z,98913.38
2018-04-12T00:12:47.690Z,98910.37
2018-04-12T00:15:15.159Z,98908.34
2018-04-12T00:17:42.639Z,98902.36
2018-04-12T00:20:10.119Z,98897.61
2018-04-12T00:22:37.589Z,98892.26
2018-04-12T00:25:05.080Z,98884.78
2018-04-12T00:27:32.558Z,98880.87
2018-04-12T00:30:00.044Z,98877.40
2018-04-12T00:32:27.508Z,98871.48
2018-04-12T00:34:54.986Z,98866.77
2018-04-12T00:37:22.458Z,98868.68
2018-04-12T00:39:49.950Z,98869.38
2018-04-12T00:42:17.412Z,98871.83
2018-04-12T00:44:44.895Z,98863.03
2018-04-12T00:47:12.411Z,98863.02
2018-04-12T00:49:39.901Z,98858.82
2018-04-12T00:52:07.361Z,98858.27
2018-04-12T00:54:34.854Z,98856.36
2018-04-12T00:57:02.331Z,98858.70
2018-04-12T00:59:29.829Z,98845.86
2018-04-12T01:01:57.288Z,98857.87
2018-04-12T01:04:24.790Z,98858.55
2018-04-12T01:06:52.262Z,98857.76
2018-04-12T01:09:19.781Z,98860.19
2018-04-12T01:11:47.249Z,98863.64
2018-04-12T01:14:14.757Z,98858.36
2018-04-12T01:16:42.223Z,98859.19
2018-04-12T01:19:09.726Z,98858.42
2018-04-12T01:21:37.198Z,98861.18
2018-04-12T01:24:04.697Z,98853.20
2018-04-12T01:26:32.171Z,98855.19
2018-04-12T01:28:59.673Z,98853.39
2018-04-12T01:31:27.145Z,98852.36
2018-04-12T01:33:54.640Z,98844.56
2018-04-12T01:36:22.122Z,98844.45
2018-04-12T01:38:49.618Z,98835.68
2018-04-12T01:41:17.124Z,98836.89
2018-04-12T01:43:44.630Z,98843.54
2018-04-12T01:46:12.098Z,98835.12
2018-04-12T01:48:39.582Z,98832.19
2018-04-12T01:51:07.085Z,98826.11
2018-04-12T01:53:34.556Z,98823.62
2018-04-12T01:56:02.047Z,98824.97
2018-04-12T01:58:29.526Z,98817.12
2018-04-12T02:00:57.025Z,98823.71
2018-04-12T02:03:24.499Z,98822.50
2018-04-12T02:05:52.016Z,98823.39
2018-04-12T02:08:19.487Z,98826.91
2018-04-12T02:10:46.983Z,98820.96
2018-04-12T02:13:14.457Z,98814.27
2018-04-12T02:15:41.962Z,98799.86
2018-04-12T02:18:09.430Z,98803.63
2018-04-12T02:20:36.920Z,98803.19
2018-04-12T02:23:04.401Z,98793.34
2018-04-12T02:25:31.881Z,98789.58
2018-04-12T02:27:59.345Z,98784.69
2018-04-12T02:30:26.829Z,98783.06
2018-04-12T02:32:54.301Z,98777.27
2018-04-12T02:35:21.785Z,98770.77
2018-04-12T02:37:49.254Z,98777.95
2018-04-12T02:40:16.750Z,98769.36
2018-04-12T02:42:44.222Z,98762.75
2018-04-12T02:45:11.729Z,98752.06
2018-04-12T02:47:39.203Z,98746.75
2018-04-12T02:50:06.699Z,98751.34
2018-04-12T02:52:34.182Z,98754.77
2018-04-12T02:55:01.673Z,98754.38
2018-04-12T02:57:29.144Z,98749.27
2018-04-12T02:59:56.622Z,98746.42
2018-04-12T03:02:24.089Z,98746.19
2018-04-12T03:04:51.578Z,98741.74
2018-04-12T03:07:19.057Z,98735.38
2018-04-12T03:09:46.530Z,98732.17
2018-04-12T03:12:14.013Z,98728.39
2018-04-12T03:14:41.479Z,98716.27
2018-04-12T03:17:08.966Z,98722.20
2018-04-12T03:19:36.443Z,98724.47
2018-04-12T03:22:04.405Z,98715.30
2018-04-12T03:24:31.897Z,98712.09
2018-04-12T03:26:59.392Z,98709.23
2018-04-12T03:29:26.879Z,98712.48
2018-04-12T03:31:54.364Z,98717.02
2018-04-12T03:34:21.841Z,98718.38
2018-04-12T03:36:49.341Z,98720.56
2018-04-12T03:39:16.805Z,98713.42
2018-04-12T03:41:44.300Z,98703.42
2018-04-12T03:44:11.769Z,98706.78
2018-04-12T03:46:39.249Z,98704.30
2018-04-12T03:49:06.815Z,98700.38
2018-04-12T03:51:34.262Z,98703.38
2018-04-12T03:54:01.729Z,98704.27
2018-04-12T03:56:29.228Z,98707.89
2018-04-12T03:58:56.701Z,98707.59
2018-04-12T04:01:24.210Z,98698.80
2018-04-12T04:03:51.678Z,98697.85
2018-04-12T04:06:19.173Z,98699.94
2018-04-12T04:08:46.641Z,98695.20
2018-04-12T04:11:14.133Z,98685.83
2018-04-12T04:13:41.613Z,98684.22
2018-04-12T04:16:21.058Z,98680.27
2018-04-12T04:19:00.282Z,98675.09
2018-04-12T04:21:27.790Z,98676.16
2018-04-12T04:23:55.286Z,98673.46
2018-04-12T04:26:22.777Z,98678.20
2018-04-12T04:28:50.254Z,98677.71
2018-04-12T04:31:17.754Z,98678.52
2018-04-12T04:33:45.223Z,98674.63
2018-04-12T04:36:12.695Z,98666.15
2018-04-12T04:38:40.189Z,98660.50
2018-04-12T04:41:07.674Z,98672.77
2018-04-12T04:43:35.179Z,98664.67
2018-04-12T04:46:02.686Z,98656.17
2018-04-12T04:48:30.191Z,98654.83
2018-04-12T04:50:57.666Z,98647.92
2018-04-12T04:53:25.153Z,98642.64
2018-04-12T04:55:52.633Z,98642.41
2018-04-12T04:58:20.170Z,98640.91
2018-04-12T05:00:47.690Z,98639.31
2018-04-12T05:03:15.158Z,98637.16
2018-04-12T05:05:42.633Z,98639.34
2018-04-12T05:08:10.125Z,98642.16
2018-04-12T05:10:37.599Z,98651.07
2018-04-12T05:13:05.091Z,98648.54
2018-04-12T05:15:32.582Z,98650.02
2018-04-12T05:18:00.124Z,98647.05
2018-04-12T05:20:27.593Z,98650.15
2018-04-12T05:22:55.089Z,98638.31
2018-04-12T05:25:22.567Z,98634.39
2018-04-12T05:27:50.093Z,98636.03
2018-04-12T05:30:17.560Z,98640.06
2018-04-12T05:32:45.051Z,98643.83
2018-04-12T05:35:12.529Z,98643.70
2018-04-12T05:37:40.018Z,98645.87
2018-04-12T05:40:07.505Z,98648.45
2018-04-12T05:42:34.993Z,98645.45
2018-04-12T05:45:02.477Z,98630.35
2018-04-12T05:47:29.961Z,98622.95
2018-04-12T05:49:57.422Z,98616.96
2018-04-12T05:52:24.916Z,98629.51
2018-04-12T05:54:52.396Z,98626.69
2018-04-12T05:57:19.874Z,98612.74
2018-04-12T05:59:47.395Z,98614.86
2018-04-12T06:02:14.875Z,98627.88
2018-04-12T06:04:42.357Z,98628.93
2018-04-12T06:07:09.827Z,98611.47
2018-04-12T06:09:37.312Z,98595.91
2018-04-12T06:12:04.769Z,98613.87
2018-04-12T06:14:32.265Z,98640.70
2018-04-12T06:16:59.738Z,98637.48
2018-04-12T06:19:27.217Z,98636.92
2018-04-12T06:21:54.694Z,98634.96
2018-04-12T06:24:23.071Z,98627.06
2018-04-12T06:26:50.534Z,98639.28
2018-04-12T06:29:18.024Z,98658.07
2018-04-12T06:31:45.490Z,98639.83
2018-04-12T06:34:12.969Z,98641.57
2018-04-12T06:36:40.429Z,98640.85
2018-04-12T06:39:08.033Z,98628.29
2018-04-12T06:41:35.754Z,98628.11
2018-04-12T06:44:04.065Z,98639.63
2018-04-12T06:46:31.534Z,98642.22
2018-04-12T06:48:59.029Z,98639.05
2018-04-12T06:51:26.499Z,98635.25
2018-04-12T06:53:53.983Z,98623.14
2018-04-12T06:56:22.395Z,98604.10
2018-04-12T06:58:49.889Z,98591.98
2018-04-12T07:01:18.102Z,98598.05
2018-04-12T07:03:45.615Z,98606.34
2018-04-12T07:06:23.561Z,98588.49
2018-04-12T07:08:51.045Z,98609.28
2018-04-12T07:11:19.193Z,98611.49
2018-04-12T07:13:47.980Z,98607.47
2018-04-12T07:16:15.452Z,98611.84
2018-04-12T07:18:42.946Z,98607.86
2018-04-12T07:21:10.410Z,98602.44
2018-04-12T07:23:40.193Z,98596.76
2018-04-12T07:26:07.730Z,98590.89
2018-04-12T07:28:35.240Z,98595.69
2018-04-12T07:31:02.714Z,98589.70
2018-04-12T07:33:30.193Z,98587.42
2018-04-12T07:35:57.694Z,98588.58
2018-04-12T07:38:25.162Z,98589.00
2018-04-12T07:40:52.661Z,98585.07
2018-04-12T07:43:28.686Z,98585.36
2018-04-12T07:45:56.855Z,98602.33
2018-04-12T07:48:24.332Z,98609.02
2018-04-12T07:50:51.820Z,98604.89
2018-04-12T07:53:19.290Z,98600.02
2018-04-12T07:55:46.781Z,98605.16
2018-04-12T07:58:14.253Z,98602.62
2018-04-12T08:00:41.742Z,98599.53
2018-04-12T08:03:09.206Z,98600.78
2018-04-12T08:05:36.722Z,98595.09
2018-04-12T08:08:05.715Z,98589.30
2018-04-12T08:10:33.252Z,98582.58
2018-04-12T08:13:00.720Z,98581.28
2018-04-12T08:15:28.261Z,98579.52
2018-04-12T08:17:55.803Z,98578.26
2018-04-12T08:20:23.485Z,98571.36
2018-04-12T08:22:50.971Z,98575.91
2018-04-12T08:25:18.491Z,98581.04
2018-04-12T08:27:45.961Z,98567.23
2018-04-12T08:30:13.456Z,98575.89
2018-04-12T08:32:40.938Z,98567.01
2018-04-12T08:35:08.430Z,98566.41
2018-04-12T08:37:35.898Z,98569.30
2018-04-12T08:40:03.398Z,98553.83
2018-04-12T08:42:30.859Z,98556.36
2018-04-12T08:44:58.351Z,98548.11
2018-04-12T08:47:26.263Z,98542.87
2018-04-12T08:49:53.767Z,98541.81
2018-04-12T08:52:21.240Z,98543.76
2018-04-12T08:54:48.728Z,98543.70
2018-04-12T08:57:16.208Z,98544.39
2018-04-12T08:59:43.702Z,98554.22
2018-04-12T09:02:11.213Z,98549.92
2018-04-12T09:04:38.719Z,98555.66
2018-04-12T09:07:06.187Z,98544.56
2018-04-12T09:09:33.660Z,98542.80
2018-04-12T09:12:01.144Z,98549.85
2018-04-12T09:14:28.622Z,98556.70
2018-04-12T09:16:56.129Z,98551.38
2018-04-12T09:19:24.183Z,98548.63
2018-04-12T09:21:51.665Z,98552.02
2018-04-12T09:24:19.144Z,98546.66
2018-04-12T09:26:46.651Z,98546.41
2018-04-12T09:29:14.119Z,98549.31
2018-04-12T09:31:42.458Z,98540.31
2018-04-12T09:34:09.935Z,98541.80
2018-04-12T09:36:38.209Z,98543.05
2018-04-12T09:39:06.517Z,98538.88
2018-04-12T09:41:34.001Z,98547.14
2018-04-12T09:44:01.463Z,98561.63
2018-04-12T09:46:28.959Z,98563.56
2018-04-12T09:48:56.849Z,98555.83
2018-04-12T09:51:24.344Z,98548.23
2018-04-12T09:53:51.806Z,98537.70
2018-04-12T09:56:19.306Z,98542.30
2018-04-12T09:58:46.781Z,98546.01
2018-04-12T10:01:14.750Z,98538.02
2018-04-12T10:03:44.065Z,98537.39
2018-04-12T10:06:11.930Z,98540.31
2018-04-12T10:08:43.339Z,98539.14
2018-04-12T10:11:10.856Z,98542.82
2018-04-12T10:13:38.321Z,98543.31
2018-04-12T10:16:05.806Z,98564.39
2018-04-12T10:18:33.265Z,98561.37
2018-04-12T10:21:00.763Z,98568.87
2018-04-12T10:23:29.078Z,98576.81
2018-04-12T10:25:57.296Z,98577.81
2018-04-12T10:28:26.611Z,98586.89
2018-04-12T10:30:54.202Z,98579.73
2018-04-12T10:33:26.273Z,98592.34
2018-04-12T10:35:54.008Z,98598.72
2018-04-12T10:38:21.557Z,98596.83
2018-04-12T10:40:49.916Z,98597.47
2018-04-12T10:43:18.890Z,98587.52
2018-04-12T10:45:46.361Z,98579.31
2018-04-12T10:48:13.846Z,98565.88
2018-04-12T10:50:41.315Z,98572.36
2018-04-12T10:53:08.806Z,98568.81
2018-04-12T10:55:36.272Z,98574.34
2018-04-12T10:58:03.764Z,98581.72
2018-04-12T11:00:31.242Z,98574.13
2018-04-12T11:02:58.731Z,98570.27
2018-04-12T11:05:26.194Z,98564.41
2018-04-12T11:07:53.681Z,98564.95
2018-04-12T11:10:21.150Z,98567.96
2018-04-12T11:12:48.637Z,98577.52
2018-04-12T11:15:16.106Z,98574.28
2018-04-12T11:17:43.589Z,98578.05
2018-04-12T11:20:11.045Z,98574.12
2018-04-12T11:22:38.530Z,98573.02
2018-04-12T11:25:05.990Z,98563.66
2018-04-12T11:27:33.477Z,98566.44
2018-04-12T11:30:00.934Z,98568.58
2018-04-12T11:32:28.422Z,98562.66
2018-04-12T11:34:55.908Z,98557.53
2018-04-12T11:37:25.854Z,98549.56
2018-04-12T11:39:53.325Z,98545.69
2018-04-12T11:42:20.813Z,98548.50
2018-04-12T11:44:48.304Z,98538.70
2018-04-12T11:47:15.777Z,98540.25
2018-04-12T11:49:43.268Z,98541.58
2018-04-12T11:52:10.759Z,98541.03
2018-04-12T11:54:38.226Z,98546.05
2018-04-12T11:57:05.722Z,98532.16
2018-04-12T11:59:33.193Z,98524.98
2018-04-12T12:02:00.677Z,98526.56
2018-04-12T12:04:28.146Z,98524.70
2018-04-12T12:06:55.694Z,98527.08
2018-04-12T12:09:23.149Z,98529.87
2018-04-12T12:11:50.619Z,98533.95
2018-04-12T12:14:18.108Z,98537.03
2018-04-12T12:16:45.583Z,98533.07
2018-04-12T12:19:13.067Z,98525.28
2018-04-12T12:21:40.538Z,98526.70
2018-04-12T12:24:08.026Z,98520.45
2018-04-12T12:26:35.514Z,98519.40
2018-04-12T12:29:03.120Z,98517.83
2018-04-12T12:31:30.537Z,98516.02
2018-04-12T12:33:58.032Z,98514.23
2018-04-12T12:36:25.491Z,98506.13
2018-04-12T12:38:52.978Z,98494.94
2018-04-12T12:41:20.447Z,98484.63
2018-04-12T12:43:47.942Z,98484.30
2018-04-12T12:46:15.414Z,98487.79
2018-04-12T12:48:42.897Z,98490.11
2018-04-12T12:51:10.362Z,98474.39
2018-04-12T12:53:37.931Z,98469.22
2018-04-12T12:56:05.402Z,98470.00
2018-04-12T12:58:32.921Z,98470.20
2018-04-12T13:01:00.398Z,98467.32
2018-04-12T13:03:27.914Z,98467.47
2018-04-12T13:05:55.380Z,98468.50
2018-04-12T13:08:22.873Z,98457.75
2018-04-12T13:10:50.344Z,98452.55
2018-04-12T13:13:17.842Z,98451.63
2018-04-12T13:15:45.315Z,98450.64
2018-04-12T13:18:12.815Z,98443.98
2018-04-12T13:20:40.278Z,98455.98
2018-04-12T13:23:07.779Z,98464.70
2018-04-12T13:25:35.241Z,98471.91
2018-04-12T13:28:03.658Z,98470.33
2018-04-12T13:30:31.128Z,98475.00
2018-04-12T13:32:58.636Z,98484.02
2018-04-12T13:35:26.130Z,98488.11
2018-04-12T13:37:53.605Z,98481.20
2018-04-12T13:40:21.088Z,98473.03
2018-04-12T13:42:48.562Z,98472.48
2018-04-12T13:45:16.071Z,98462.02
2018-04-12T13:47:43.533Z,98451.28
2018-04-12T13:50:11.020Z,98446.84
2018-04-12T13:52:48.258Z,98449.66
2018-04-12T13:55:15.760Z,98457.11
2018-04-12T13:57:43.234Z,98461.13
2018-04-12T14:00:10.734Z,98465.69
2018-04-12T14:02:38.213Z,98463.59
2018-04-12T14:05:05.701Z,98465.30
2018-04-12T14:07:33.161Z,98463.00
2018-04-12T14:10:01.114Z,98468.98
2018-04-12T14:12:28.609Z,98466.67
2018-04-12T14:14:56.097Z,98473.25
2018-04-12T14:17:23.585Z,98475.02
2018-04-12T14:19:51.078Z,98476.11
2018-04-12T14:22:18.546Z,98472.37
2018-04-12T14:24:46.029Z,98474.54
2018-04-12T14:27:13.511Z,98463.64
2018-04-12T14:29:41.022Z,98468.14
2018-04-12T14:32:08.535Z,98471.28
2018-04-12T14:34:36.018Z,98473.33
2018-04-12T14:37:03.477Z,98472.27
2018-04-12T14:39:30.965Z,98483.04
2018-04-12T14:41:58.433Z,98490.20
2018-04-12T14:44:25.919Z,98493.17
2018-04-12T14:46:53.398Z,98503.94
2018-04-12T14:49:20.894Z,98499.07
2018-04-12T14:51:48.366Z,98508.47
2018-04-12T14:54:19.090Z,98506.36
2018-04-12T14:56:43.356Z,98510.42
2018-04-12T14:59:10.850Z,98507.89
2018-04-12T15:01:38.315Z,98499.72
2018-04-12T15:04:05.792Z,98504.77
2018-04-12T15:06:33.278Z,98496.77
2018-04-12T15:09:00.746Z,98496.62
2018-04-12T15:11:28.225Z,98493.23
2018-04-12T15:13:56.483Z,98482.95
2018-04-12T15:16:23.975Z,98481.55
2018-04-12T15:18:52.499Z,98480.28
2018-04-12T15:21:19.967Z,98474.88
2018-04-12T15:23:47.428Z,98476.72
2018-04-12T15:26:14.923Z,98478.16
2018-04-12T15:28:42.398Z,98477.02
2018-04-12T15:31:09.878Z,98486.42
2018-04-12T15:33:37.347Z,98482.15
2018-04-12T15:36:04.839Z,98495.41
2018-04-12T15:38:32.355Z,98499.92
2018-04-12T15:40:59.842Z,98501.84
2018-04-12T15:43:27.314Z,98510.09
2018-04-12T15:45:54.839Z,98518.67
2018-04-12T15:48:22.297Z,98516.13
2018-04-12T15:50:49.787Z,98516.52
2018-04-12T15:53:17.251Z,98520.11
2018-04-12T15:55:44.745Z,98524.63
2018-04-12T15:58:12.218Z,98524.63
2018-04-12T16:00:39.729Z,98529.99
2018-04-12T16:03:07.215Z,98530.80
2018-04-12T16:05:34.708Z,98526.05
2018-04-12T16:08:02.183Z,98530.70
2018-04-12T16:10:29.670Z,98523.39
2018-04-12T16:12:57.146Z,98527.96
2018-04-12T16:15:24.650Z,98510.36
2018-04-12T16:17:52.110Z,98511.12
2018-04-12T16:20:19.603Z,98520.08
2018-04-12T16:22:47.107Z,98524.43
2018-04-12T16:25:14.602Z,98528.04
2018-04-12T16:27:42.494Z,98526.63
2018-04-12T16:30:10.015Z,98523.63
2018-04-12T16:32:37.508Z,98531.95
2018-04-12T16:35:04.994Z,98536.41
2018-04-12T16:37:32.482Z,98537.72
2018-04-12T16:39:59.954Z,98539.75
2018-04-12T16:42:27.451Z,98546.47
2018-04-12T16:44:54.930Z,98543.58
2018-04-12T16:47:22.413Z,98554.14
2018-04-12T16:49:49.882Z,98552.34
2018-04-12T16:52:17.366Z,98554.62
2018-04-12T16:54:44.854Z,98559.33
2018-04-12T16:57:12.471Z,98563.19
2018-04-12T16:59:39.947Z,98561.63
2018-04-12T17:02:07.431Z,98566.10
2018-04-12T17:04:35.125Z,98571.91
2018-04-12T17:07:02.654Z,98571.88
2018-04-12T17:09:30.155Z,98572.00
2018-04-12T17:11:57.643Z,98573.92
2018-04-12T17:14:25.115Z,98573.39
2018-04-12T17:16:52.610Z,98575.91
2018-04-12T17:19:20.078Z,98588.27
2018-04-12T17:21:47.559Z,98588.48
2018-04-12T17:24:15.036Z,98593.67
2018-04-12T17:26:42.524Z,98591.80
2018-04-12T17:29:09.995Z,98604.30
2018-04-12T17:31:37.477Z,98603.27
2018-04-12T17:34:04.950Z,98604.08
2018-04-12T17:36:32.435Z,98612.06
2018-04-12T17:38:59.896Z,98614.31
2018-04-12T17:41:27.377Z,98616.52
2018-04-12T17:43:54.858Z,98624.89
2018-04-12T17:46:22.340Z,98627.86
2018-04-12T17:48:49.797Z,98630.04
2018-04-12T17:51:17.285Z,98632.96
2018-04-12T17:53:44.742Z,98633.22
2018-04-12T17:56:12.202Z,98626.70
2018-04-12T17:58:39.675Z,98640.13
2018-04-12T18:01:07.141Z,98641.48
2018-04-12T18:03:34.696Z,98645.54
2018-04-12T18:06:02.213Z,98645.54
2018-04-12T18:08:29.654Z,98647.95
2018-04-12T18:10:57.105Z,98648.45
2018-04-12T18:13:24.584Z,98655.72
2018-04-12T18:15:52.041Z,98660.22
2018-04-12T18:18:19.525Z,98664.21
2018-04-12T18:20:47.095Z,98659.55
2018-04-12T18:23:14.581Z,98661.78
2018-04-12T18:25:42.044Z,98667.04
2018-04-12T18:28:09.526Z,98661.42
2018-04-12T18:30:36.994Z,98665.13
2018-04-12T18:33:04.483Z,98670.69
2018-04-12T18:35:31.948Z,98665.72
2018-04-12T18:37:59.446Z,98677.88
2018-04-12T18:40:26.926Z,98679.07
2018-04-12T18:42:54.414Z,98678.19
2018-04-12T18:45:21.886Z,98678.23
2018-04-12T18:47:49.384Z,98686.72
2018-04-12T18:50:16.846Z,98690.73
2018-04-12T18:52:44.334Z,98705.67
2018-04-12T18:55:11.806Z,98708.23
2018-04-12T18:57:39.298Z,98711.78
2018-04-12T19:00:06.766Z,98714.02
2018-04-12T19:02:34.270Z,98711.76
2018-04-12T19:05:01.780Z,98716.48
2018-04-12T19:07:29.276Z,98708.41
2018-04-12T19:09:56.740Z,98716.89
2018-04-12T19:12:24.221Z,98723.68
2018-04-12T19:14:51.685Z,98717.41
2018-04-12T19:17:19.179Z,98724.18
2018-04-12T19:19:46.643Z,98723.20
2018-04-12T19:22:14.114Z,98718.39
2018-04-12T19:24:41.602Z,98722.43
2018-04-12T19:27:09.069Z,98725.97
2018-04-12T19:29:37.534Z,98732.38
2018-04-12T19:32:04.993Z,98741.27
2018-04-12T19:34:32.473Z,98745.48
2018-04-12T19:36:59.942Z,98749.88
2018-04-12T19:39:27.443Z,98746.86
2018-04-12T19:41:54.954Z,98743.23
2018-04-12T19:44:22.453Z,98744.30
2018-04-12T19:46:49.926Z,98747.20
2018-04-12T19:49:17.422Z,98752.16
2018-04-12T19:51:44.893Z,98755.39
2018-04-12T19:54:12.382Z,98752.56
2018-04-12T19:56:39.857Z,98749.30
2018-04-12T19:59:07.338Z,98749.23
2018-04-12T20:01:34.816Z,98745.45
2018-04-12T20:04:02.342Z,98750.12
2018-04-12T20:06:29.810Z,98755.85
2018-04-12T20:08:57.307Z,98758.73
2018-04-12T20:11:24.785Z,98762.09
2018-04-12T20:13:52.275Z,98758.70
2018-04-12T20:16:19.742Z,98761.84
2018-04-12T20:18:47.290Z,98754.34
2018-04-12T20:21:14.766Z,98754.84
2018-04-12T20:23:42.258Z,98745.31
2018-04-12T20:26:09.730Z,98756.42
2018-04-12T20:28:37.219Z,98754.48
2018-04-12T20:31:04.694Z,98748.57
2018-04-12T20:33:32.182Z,98753.29
2018-04-12T20:35:59.649Z,98749.34
2018-04-12T20:38:27.143Z,98744.65
2018-04-12T20:40:54.606Z,98738.48
2018-04-12T20:43:22.073Z,98748.77
2018-04-12T20:45:49.553Z,98752.25
2018-04-12T20:48:17.019Z,98756.92
2018-04-12T20:50:44.498Z,98757.98
2018-04-12T20:53:11.958Z,98769.78
2018-04-12T20:55:39.441Z,98770.38
2018-04-12T20:58:06.907Z,98761.82
2018-04-12T21:00:34.397Z,98760.54
2018-04-12T21:03:01.886Z,98757.84
2018-04-12T21:05:29.383Z,98761.97
2018-04-12T21:07:56.845Z,98764.19
2018-04-12T21:10:24.336Z,98767.86
2018-04-12T21:12:51.809Z,98770.98
2018-04-12T21:15:19.302Z,98774.80
2018-04-12T21:17:46.770Z,98776.88
2018-04-12T21:20:14.262Z,98776.70
2018-04-12T21:22:41.725Z,98787.91
2018-04-12T21:25:09.218Z,98786.86
2018-04-12T21:27:36.678Z,98784.80
2018-04-12T21:30:04.171Z,98784.44
2018-04-12T21:32:31.643Z,98783.72
2018-04-12T21:34:59.138Z,98786.63
2018-04-12T21:37:26.640Z,98794.39
2018-04-12T21:39:54.099Z,98786.75
2018-04-12T21:42:21.566Z,98789.57
2018-04-12T21:44:49.042Z,98788.20
2018-04-12T21:47:16.498Z,98791.56
2018-04-12T21:49:43.996Z,98781.68
2018-04-12T21:52:11.453Z,98789.80
2018-04-12T21:54:38.937Z,98789.67
2018-04-12T21:57:06.402Z,98784.36
2018-04-12T21:59:33.876Z,98791.55
2018-04-12T22:02:01.335Z,98792.64
2018-04-12T22:04:28.800Z,98794.45
2018-04-12T22:06:56.286Z,98799.06
2018-04-12T22:09:23.757Z,98796.91
2018-04-12T22:11:51.244Z,98809.47
2018-04-12T22:14:18.713Z,98810.91
2018-04-12T22:16:46.197Z,98813.78
2018-04-12T22:19:13.663Z,98820.37
2018-04-12T22:21:41.150Z,98828.61
2018-04-12T22:24:08.620Z,98826.34
2018-04-12T22:26:36.104Z,98829.77
2018-04-12T22:29:03.572Z,98830.59
2018-04-12T22:31:32.999Z,98833.39
2018-04-12T22:34:00.464Z,98834.39
2018-04-12T22:36:27.946Z,98831.52
2018-04-12T22:38:55.405Z,98834.25
2018-04-12T22:41:22.890Z,98836.67
2018-04-12T22:43:50.345Z,98833.09
2018-04-12T22:46:17.839Z,98833.81
2018-04-12T22:48:45.302Z,98831.62
2018-04-12T22:51:12.782Z,98831.75
2018-04-12T22:53:40.234Z,98832.38
2018-04-12T22:56:07.713Z,98831.06
2018-04-12T22:58:35.170Z,98840.60
2018-04-12T23:01:02.650Z,98840.44
2018-04-12T23:03:30.112Z,98843.20
2018-04-12T23:05:57.594Z,98841.63
2018-04-12T23:08:25.048Z,98841.92
2018-04-12T23:10:52.529Z,98835.86
2018-04-12T23:13:19.987Z,98846.14
2018-04-12T23:15:47.468Z,98842.90
2018-04-12T23:18:14.925Z,98852.64
2018-04-12T23:20:42.406Z,98849.56
2018-04-12T23:23:09.881Z,98854.53
2018-04-12T23:25:37.377Z,98853.20
2018-04-12T23:28:04.845Z,98848.86
2018-04-12T23:30:32.306Z,98858.34
2018-04-12T23:32:59.782Z,98859.97
2018-04-12T23:35:27.234Z,98864.70
2018-04-12T23:37:54.715Z,98865.90
2018-04-12T23:40:22.176Z,98866.30
2018-04-12T23:42:49.657Z,98869.53
2018-04-12T23:45:17.121Z,98874.16
2018-04-12T23:47:44.609Z,98876.84
2018-04-12T23:50:12.065Z,98875.36
2018-04-12T23:52:39.548Z,98870.34
2018-04-12T23:55:07.004Z,98866.30
2018-04-12T23:57:34.493Z,98874.78
